Time;durP1;ratioP1;P1;durP2;ratioP2;P2;SDS_P1;SDS_P2;PMS_P1;PMS_P2;Temp;Humidity;BMP_temperature;BMP_pressure;BME280_temperature;BME280_humidity;BME280_pressure;Samples;Min_cycle;Max_cycle;Signal;HPM_P1;HPM_P2
2021/09/10 00:05:02;;;;;;;3.13;1.60;;;23.30;99.90;;;;;;20667875;23;20599;-70
2021/09/10 00:15:07;;;;;;;2.25;1.58;;;23.20;99.90;;;;;;20613125;28;20199;-70
2021/09/10 00:25:13;;;;;;;1.80;1.40;;;23.00;99.90;;;;;;20675041;28;20226;-72
2021/09/10 00:35:17;;;;;;;1.45;1.35;;;22.90;99.90;;;;;;20700719;28;20187;-71
2021/09/10 00:45:22;;;;;;;1.88;1.33;;;22.80;99.90;;;;;;20696102;28;20210;-71
2021/09/10 00:55:26;;;;;;;4.05;1.50;;;22.70;99.90;;;;;;20696892;28;20213;-71
2021/09/10 01:05:32;;;;;;;1.92;1.58;;;22.50;99.90;;;;;;20697182;28;20223;-71
2021/09/10 01:15:36;;;;;;;2.00;1.33;;;22.50;99.90;;;;;;20696328;28;20581;-72
2021/09/10 01:25:41;;;;;;;2.22;1.20;;;22.50;99.90;;;;;;20632814;28;20553;-70
2021/09/10 01:35:46;;;;;;;9.85;1.73;;;22.50;99.90;;;;;;20614053;28;20724;-72
2021/09/10 01:45:51;;;;;;;2.57;1.87;;;22.50;99.90;;;;;;20615517;28;20227;-71
2021/09/10 01:55:55;;;;;;;6.50;1.77;;;22.40;99.90;;;;;;20615334;28;20641;-70
2021/09/10 02:06:00;;;;;;;1.92;1.52;;;22.50;99.90;;;;;;20621321;28;20239;-71
2021/09/10 02:16:04;;;;;;;8.23;1.77;;;22.30;99.90;;;;;;20625934;28;20660;-70
2021/09/10 02:26:09;;;;;;;4.00;2.00;;;22.30;99.90;;;;;;20685601;28;20227;-72
2021/09/10 02:36:13;;;;;;;8.70;2.03;;;22.20;99.90;;;;;;20706327;28;20573;-71
2021/09/10 02:46:19;;;;;;;1.50;1.40;;;22.20;99.90;;;;;;20707749;28;20223;-70
2021/09/10 02:56:23;;;;;;;1.47;1.37;;;22.00;99.90;;;;;;20703666;28;20280;-71
2021/09/10 03:06:28;;;;;;;1.83;1.63;;;21.90;99.90;;;;;;20703359;28;20227;-70
2021/09/10 03:16:32;;;;;;;1.67;1.50;;;21.90;99.90;;;;;;20702019;28;20187;-70
2021/09/10 03:26:37;;;;;;;2.20;1.57;;;22.00;99.90;;;;;;20634528;28;20219;-70
2021/09/10 03:36:41;;;;;;;0.77;0.77;;;22.10;99.90;;;;;;20619789;28;20196;-70
2021/09/10 03:46:46;;;;;;;3.28;0.98;;;22.20;99.90;;;;;;20621241;28;20226;-70
2021/09/10 03:56:50;;;;;;;1.45;1.02;;;22.50;99.90;;;;;;20619993;28;20660;-69
2021/09/10 04:06:56;;;;;;;1.23;1.15;;;22.40;99.90;;;;;;20618911;28;20243;-69
2021/09/10 04:17:00;;;;;;;3.90;1.05;;;22.30;99.90;;;;;;20619365;28;20196;-69
2021/09/10 04:27:05;;;;;;;3.72;1.70;;;22.40;99.90;;;;;;20672176;28;20218;-72
2021/09/10 04:37:09;;;;;;;0.82;0.80;;;22.20;99.90;;;;;;20696773;28;20191;-69
2021/09/10 04:47:14;;;;;;;1.10;0.98;;;22.30;99.90;;;;;;20695701;28;20219;-70
2021/09/10 04:57:18;;;;;;;1.63;1.52;;;22.40;99.90;;;;;;20697793;28;20210;-69
2021/09/10 05:07:24;;;;;;;0.88;0.85;;;22.30;99.90;;;;;;20695573;28;20238;-69
2021/09/10 05:17:28;;;;;;;1.10;0.80;;;22.30;99.90;;;;;;20695872;28;20349;-70
2021/09/10 05:27:33;;;;;;;1.42;0.82;;;22.30;99.90;;;;;;20615383;28;20219;-71
2021/09/10 05:37:37;;;;;;;0.77;0.63;;;22.50;99.90;;;;;;20614784;28;20196;-69
2021/09/10 05:47:44;;;;;;;2.40;0.98;;;22.40;99.90;;;;;;20628186;28;20294;-69
2021/09/10 05:57:48;;;;;;;1.52;1.42;;;22.30;99.90;;;;;;20629226;28;20202;-70
2021/09/10 06:07:53;;;;;;;2.53;1.83;;;22.30;99.90;;;;;;20629077;28;20235;-70
2021/09/10 06:17:56;;;;;;;0.80;0.77;;;22.20;99.90;;;;;;20627015;28;20203;-72
2021/09/10 06:28:02;;;;;;;1.60;1.38;;;22.30;99.90;;;;;;20704778;28;20349;-79
2021/09/10 06:38:05;;;;;;;2.00;1.90;;;22.50;99.90;;;;;;20686236;28;20202;-72
2021/09/10 06:48:11;;;;;;;6.43;1.75;;;22.60;99.90;;;;;;20701050;28;20214;-70
2021/09/10 06:58:15;;;;;;;1.25;1.15;;;22.80;99.90;;;;;;20700216;28;20190;-71
2021/09/10 07:08:20;;;;;;;3.70;1.92;;;23.00;99.90;;;;;;20702967;28;21008;-70
2021/09/10 07:18:24;;;;;;;1.45;1.08;;;23.20;99.90;;;;;;20698574;28;20657;-71
2021/09/10 07:28:29;;;;;;;2.67;1.80;;;23.50;99.90;;;;;;20621105;28;20230;-70
2021/09/10 07:38:34;;;;;;;1.80;1.67;;;23.50;99.90;;;;;;20617402;28;20295;-70
2021/09/10 07:48:40;;;;;;;1.33;0.80;;;23.90;99.90;;;;;;20619146;28;20238;-71
2021/09/10 07:58:43;;;;;;;1.52;1.17;;;24.10;99.90;;;;;;20614886;28;20190;-71
2021/09/10 08:08:49;;;;;;;1.73;1.55;;;24.20;99.90;;;;;;20616308;28;20344;-70
2021/09/10 08:18:53;;;;;;;1.50;1.10;;;24.50;99.90;;;;;;20606178;28;20394;-69
2021/09/10 08:29:21;;;;;;;0.65;0.65;;;25.00;99.90;;;;;;20697443;28;21086;-69
2021/09/10 08:39:25;;;;;;;2.83;0.65;;;25.80;99.90;;;;;;20692988;28;20195;-70
2021/09/10 08:49:31;;;;;;;1.20;1.13;;;25.90;99.90;;;;;;20695776;28;20998;-70
2021/09/10 08:59:34;;;;;;;2.60;1.35;;;26.50;99.90;;;;;;20696116;28;20655;-68
2021/09/10 09:09:44;;;;;;;1.30;1.02;;;26.40;99.90;;;;;;20695592;28;20317;-67
2021/09/10 09:20:19;;;;;;;2.00;1.33;;;26.50;99.90;;;;;;20693711;28;21115;-69
2021/09/10 09:30:38;;;;;;;1.60;1.48;;;26.40;99.90;;;;;;20622386;28;20285;-69
2021/09/10 09:40:42;;;;;;;1.90;1.63;;;26.70;99.90;;;;;;20630101;28;20629;-68
2021/09/10 09:50:49;;;;;;;1.60;1.48;;;26.90;99.90;;;;;;20627838;28;20219;-69
2021/09/10 10:00:52;;;;;;;2.63;1.67;;;27.10;99.90;;;;;;20627731;28;20231;-70
2021/09/10 10:11:06;;;;;;;2.83;1.60;;;27.80;99.90;;;;;;20627301;28;20230;-69
2021/09/10 10:21:11;;;;;;;3.10;1.77;;;28.20;99.90;;;;;;20648599;28;20205;-71
2021/09/10 10:31:17;;;;;;;1.73;1.40;;;28.40;99.90;;;;;;20704658;28;20644;-69
2021/09/10 10:41:22;;;;;;;2.25;1.50;;;28.60;99.90;;;;;;20701655;28;20302;-68
2021/09/10 10:51:53;;;;;;;8.65;2.28;;;28.30;99.90;;;;;;20685458;28;20234;-70
2021/09/10 11:02:35;;;;;;;1.80;1.23;;;29.30;99.90;;;;;;20701843;28;20819;-70
2021/09/10 11:12:42;;;;;;;2.55;2.10;;;30.30;99.90;;;;;;20700319;28;20284;-70
2021/09/10 11:22:49;;;;;;;3.50;2.03;;;30.30;99.90;;;;;;20663189;28;20601;-69
2021/09/10 11:33:01;;;;;;;2.67;1.50;;;30.60;99.90;;;;;;20618489;28;20707;-68
2021/09/10 11:43:10;;;;;;;5.82;1.52;;;31.40;99.90;;;;;;20617167;28;20195;-72
2021/09/10 11:53:16;;;;;;;2.20;1.80;;;31.30;99.90;;;;;;20618448;28;20234;-72
2021/09/10 12:03:20;;;;;;;5.88;1.58;;;30.60;99.90;;;;;;20615680;28;20583;-70
2021/09/10 12:13:33;;;;;;;4.32;2.35;;;30.40;99.90;;;;;;20616745;28;20231;-72
2021/09/10 12:23:37;;;;;;;4.60;2.33;;;31.00;99.90;;;;;;20660376;28;20198;-72
2021/09/10 12:33:44;;;;;;;4.65;1.35;;;28.80;99.90;;;;;;20695170;28;20229;-71
2021/09/10 12:43:48;;;;;;;1.70;1.42;;;30.00;99.90;;;;;;20695290;28;20349;-72
2021/09/10 12:53:53;;;;;;;1.90;1.15;;;28.20;99.90;;;;;;20694325;28;20218;-70
2021/09/10 13:03:57;;;;;;;1.70;1.25;;;27.30;99.90;;;;;;20695238;28;20234;-69
2021/09/10 13:14:02;;;;;;;2.08;1.73;;;26.50;99.90;;;;;;20695348;28;20197;-70
2021/09/10 13:24:06;;;;;;;1.92;1.42;;;25.80;99.90;;;;;;20645499;28;20773;-70
2021/09/10 13:34:12;;;;;;;3.90;1.63;;;24.40;99.90;;;;;;20613686;28;20203;-71
2021/09/10 13:44:16;;;;;;;2.42;1.38;;;23.60;99.90;;;;;;20612588;28;20211;-72
2021/09/10 13:54:22;;;;;;;2.28;1.67;;;23.40;99.90;;;;;;20613367;28;20207;-71
2021/09/10 14:04:26;;;;;;;2.42;1.33;;;23.10;99.90;;;;;;20618408;28;20239;-70
2021/09/10 14:14:31;;;;;;;0.95;0.93;;;23.30;99.90;;;;;;20620668;28;20196;-68
2021/09/10 14:24:35;;;;;;;3.83;1.67;;;23.10;99.90;;;;;;20675554;28;20214;-71
2021/09/10 14:34:40;;;;;;;1.65;1.40;;;23.50;99.90;;;;;;20703599;28;20723;-69
2021/09/10 14:44:44;;;;;;;1.73;1.63;;;23.40;99.90;;;;;;20700152;28;20255;-67
2021/09/10 14:54:48;;;;;;;1.60;0.98;;;23.60;99.90;;;;;;20701245;28;20199;-68
2021/09/10 15:04:53;;;;;;;2.50;1.35;;;24.40;99.90;;;;;;20698257;28;20242;-73
2021/09/10 15:14:58;;;;;;;1.80;1.33;;;25.10;99.90;;;;;;20699554;28;20648;-67
2021/09/10 15:25:02;;;;;;;1.88;1.17;;;26.00;99.90;;;;;;20640724;28;20219;-68
2021/09/10 15:35:09;;;;;;;11.43;2.22;;;29.90;99.90;;;;;;20617862;28;20207;-71
2021/09/10 15:45:15;;;;;;;3.70;0.90;;;26.90;99.90;;;;;;20596393;28;20215;-68
2021/09/10 15:55:20;;;;;;;2.47;2.28;;;26.30;99.90;;;;;;20614086;28;20192;-67
2021/09/10 16:05:25;;;;;;;2.60;2.20;;;26.30;99.90;;;;;;20614832;28;20401;-68
2021/09/10 16:15:30;;;;;;;2.15;0.95;;;26.00;99.90;;;;;;20612835;28;20211;-68
2021/09/10 16:25:33;;;;;;;1.60;1.40;;;25.70;99.90;;;;;;20673488;28;20306;-70
2021/09/10 16:35:41;;;;;;;1.48;1.02;;;25.30;99.90;;;;;;20630957;28;20651;-69
2021/09/10 16:45:45;;;;;;;1.27;1.15;;;24.80;99.90;;;;;;20615204;28;20235;-68
2021/09/10 16:55:51;;;;;;;0.70;0.68;;;24.30;99.90;;;;;;20612057;28;20210;-69
2021/09/10 17:05:55;;;;;;;0.98;0.88;;;24.20;99.90;;;;;;20613531;28;20313;-69
2021/09/10 17:16:01;;;;;;;1.35;0.93;;;23.50;99.90;;;;;;20613740;28;20199;-71
2021/09/10 17:26:05;;;;;;;1.52;0.82;;;23.30;99.90;;;;;;20639341;28;20227;-72
2021/09/10 17:36:10;;;;;;;3.40;1.13;;;22.80;99.90;;;;;;20619976;28;20671;-69
2021/09/10 17:46:15;;;;;;;0.50;0.50;;;22.30;99.90;;;;;;20625806;28;20223;-68
2021/09/10 17:56:24;;;;;;;0.83;0.83;;;22.20;99.90;;;;;;20624584;28;20196;-70
2021/09/10 18:06:30;;;;;;;0.80;0.60;;;22.30;99.90;;;;;;20617337;28;20716;-69
2021/09/10 18:16:36;;;;;;;1.17;1.07;;;22.20;99.90;;;;;;20549431;28;20195;-69
2021/09/10 18:26:40;;;;;;;0.70;0.67;;;21.90;99.90;;;;;;20681834;28;20226;-73
2021/09/10 18:36:45;;;;;;;1.60;0.63;;;21.70;99.90;;;;;;20702911;28;20215;-73
2021/09/10 18:46:49;;;;;;;1.13;0.87;;;21.70;99.90;;;;;;20703432;28;20225;-73
2021/09/10 18:56:54;;;;;;;5.93;1.40;;;21.40;99.90;;;;;;20676724;28;20690;-73
2021/09/10 19:06:58;;;;;;;3.87;2.20;;;21.40;99.90;;;;;;20692707;28;20231;-72
2021/09/10 19:17:04;;;;;;;1.93;1.23;;;21.30;99.90;;;;;;20699955;28;20538;-73
2021/09/10 19:27:09;;;;;;;1.03;0.93;;;21.30;99.90;;;;;;20627344;28;20230;-72
2021/09/10 19:37:14;;;;;;;0.73;0.73;;;21.30;99.90;;;;;;20616984;28;20676;-69
2021/09/10 19:47:17;;;;;;;1.67;0.87;;;21.10;99.90;;;;;;20616493;28;20219;-71
2021/09/10 19:57:25;;;;;;;2.50;1.77;;;21.20;99.90;;;;;;20585282;28;20681;-69
2021/09/10 20:07:28;;;;;;;1.03;0.70;;;21.40;99.90;;;;;;20534811;28;20744;-70
2021/09/10 20:17:34;;;;;;;0.87;0.27;;;21.30;99.90;;;;;;20533296;28;20776;-69
2021/09/10 20:27:37;;;;;;;1.03;0.90;;;21.20;99.90;;;;;;20688750;28;20227;-70
2021/09/10 20:37:43;;;;;;;0.30;0.27;;;21.30;99.90;;;;;;20653108;28;20187;-69
2021/09/10 20:47:47;;;;;;;0.33;0.13;;;21.30;99.90;;;;;;20613588;28;20231;-70
2021/09/10 20:57:52;;;;;;;0.80;0.63;;;21.20;99.90;;;;;;20613766;28;20195;-70
2021/09/10 21:07:56;;;;;;;0.40;0.40;;;21.30;99.90;;;;;;20605981;28;20242;-71
2021/09/10 21:18:01;;;;;;;0.57;0.33;;;21.40;99.90;;;;;;20615637;28;21096;-70
2021/09/10 21:28:05;;;;;;;0.70;0.30;;;21.40;99.90;;;;;;20686028;28;20686;-70
2021/09/10 21:38:10;;;;;;;0.20;0.10;;;21.50;99.90;;;;;;20697282;28;20199;-71
2021/09/10 21:48:14;;;;;;;0.30;0.30;;;21.60;99.90;;;;;;20694630;28;20684;-71
2021/09/10 21:58:19;;;;;;;1.53;1.43;;;21.50;99.90;;;;;;20694185;28;20802;-70
2021/09/10 22:08:22;;;;;;;2.00;0.40;;;21.40;99.90;;;;;;20694481;28;20699;-70
2021/09/10 22:18:27;;;;;;;4.53;1.13;;;21.20;99.90;;;;;;20693175;28;20540;-69
2021/09/10 22:28:31;;;;;;;0.70;0.70;;;21.20;99.90;;;;;;20626287;28;20219;-69
2021/09/10 22:38:36;;;;;;;0.43;0.20;;;21.30;99.90;;;;;;20625537;28;20206;-69
2021/09/10 22:48:39;;;;;;;0.30;0.20;;;21.20;99.90;;;;;;20625927;28;20238;-70
2021/09/10 22:58:44;;;;;;;1.63;0.30;;;21.20;99.90;;;;;;20626371;28;20191;-70
2021/09/10 23:08:48;;;;;;;0.97;0.33;;;21.10;99.90;;;;;;20623157;28;20239;-70
2021/09/10 23:18:53;;;;;;;0.20;0.10;;;21.10;99.90;;;;;;20613807;28;20198;-69
2021/09/10 23:28:56;;;;;;;0.20;0.20;;;21.00;99.90;;;;;;20704049;28;20820;-68
2021/09/10 23:39:01;;;;;;;0.20;0.10;;;20.90;99.90;;;;;;20703191;28;20203;-69
2021/09/10 23:49:05;;;;;;;1.83;0.73;;;20.80;99.90;;;;;;20702385;28;20222;-70
2021/09/10 23:59:10;;;;;;;3.90;1.07;;;20.80;99.90;;;;;;20703987;28;20198;-68
